»·PEaware :: N822JH L88-KSBP

N822JH :: L88-KSBP

FLIGHT INFORMATION

Flight Status: Arrived
Operator: Privately registered:
United States
More flights under this callsign
Pilot: Aleksandr Z. (18023)
Aircraft: PIPER PA-24 COMMANCHE
(PA24)
More flights by this aircraft type
Origin: L88 New Cuyama
United States
Destination: KSBP San Luis Co Regl
United States
More flights between these airports :: More routes between these airports
Route:
File this flight plan on PilotEdge
Remarks:
Altitude:
(Current/Filed)
6,500ft
Speed:
(Current/Filed)
160kts
Departed: 30-Jan-19 02:55 AM
Arrived: 30-Jan-19 03:34 AM
Distance/Time
Traveled:
50nm/0:39
Distance/Time
To Go:
Arrived

Flight Plot

Page will automatically refresh every two minutes.


Map Options




Map Legend


Flown Route
Filed Route
Departure Airport
Arrival Airport
Navaid (VOR, NDB)
Fix

Horizontal Profiles

Position Reports

Time Latitude Longitude Heading Altitude Ground
Speed
30-Jan-19 02:32 34.943325 -119.691587 24 2206ft 0kts
30-Jan-19 02:33 34.943325 -119.691587 24 2206ft 0kts
30-Jan-19 02:34 34.943325 -119.691587 24 2206ft 0kts
30-Jan-19 02:35 34.943325 -119.691587 24 2206ft 0kts
30-Jan-19 02:36 34.943325 -119.691587 24 2206ft 0kts
30-Jan-19 02:37 34.943325 -119.691587 24 2206ft 0kts
30-Jan-19 02:38 34.943325 -119.691587 24 2206ft 0kts
30-Jan-19 02:39 34.943325 -119.691587 24 2206ft 0kts
30-Jan-19 02:40 34.943325 -119.691587 24 2206ft 0kts
30-Jan-19 02:41 34.943325 -119.691587 24 2206ft 0kts
30-Jan-19 02:42 34.943325 -119.691587 24 2206ft 0kts
30-Jan-19 02:43 34.943325 -119.691587 24 2206ft 0kts
30-Jan-19 02:44 34.943325 -119.691587 24 2206ft 0kts
30-Jan-19 02:45 34.943325 -119.691587 24 2206ft 0kts
30-Jan-19 02:46 34.943325 -119.691587 24 2206ft 0kts
30-Jan-19 02:47 34.943325 -119.691587 24 2206ft 0kts
30-Jan-19 02:48 34.943325 -119.691587 24 2206ft 0kts
30-Jan-19 02:49 34.943327 -119.691586 24 2206ft 0kts
30-Jan-19 02:50 34.943328 -119.691585 24 2206ft 0kts
30-Jan-19 02:51 34.942960 -119.691126 170 2206ft 8kts
30-Jan-19 02:52 34.942778 -119.691171 211 2206ft 0kts
30-Jan-19 02:53 34.942313 -119.691310 113 2206ft 0kts
30-Jan-19 02:54 34.937094 -119.678485 112 2356ft 96kts
30-Jan-19 02:55 34.918726 -119.677370 210 3640ft 80kts
30-Jan-19 02:56 34.927776 -119.702964 299 4537ft 91kts
30-Jan-19 02:57 34.944329 -119.730473 318 5346ft 108kts
30-Jan-19 02:58 34.956534 -119.760342 298 6397ft 88kts
30-Jan-19 02:59 34.969039 -119.794001 298 6494ft 125kts
30-Jan-19 03:00 34.984295 -119.834544 297 6496ft 142kts
30-Jan-19 03:01 35.001189 -119.879144 297 6514ft 145kts
30-Jan-19 03:02 35.018045 -119.923757 297 6517ft 143kts
30-Jan-19 03:03 35.034963 -119.967177 305 6510ft 138kts
30-Jan-19 03:04 35.055818 -120.006415 305 6507ft 138kts
30-Jan-19 03:05 35.076480 -120.045827 304 6507ft 138kts
30-Jan-19 03:06 35.097713 -120.085959 306 6509ft 142kts
30-Jan-19 03:07 35.116032 -120.129240 283 6505ft 147kts
30-Jan-19 03:08 35.107295 -120.179123 251 6512ft 154kts
30-Jan-19 03:09 35.108032 -120.228314 286 6514ft 147kts
30-Jan-19 03:10 35.115697 -120.274441 286 4997ft 142kts
30-Jan-19 03:11 35.124867 -120.319193 291 3525ft 127kts
30-Jan-19 03:12 35.135869 -120.356717 293 2720ft 101kts
30-Jan-19 03:13 35.145804 -120.388866 293 2458ft 104kts
30-Jan-19 03:14 35.157882 -120.420946 298 2219ft 103kts
30-Jan-19 03:15 35.169319 -120.453156 286 2167ft 97kts
30-Jan-19 03:16 35.176771 -120.486095 284 2185ft 107kts
30-Jan-19 03:17 35.184608 -120.521049 284 1691ft 102kts
30-Jan-19 03:18 35.192748 -120.557640 285 1653ft 117kts
30-Jan-19 03:19 35.203044 -120.596337 303 1351ft 120kts
30-Jan-19 03:20 35.217301 -120.629942 299 1193ft 116kts
30-Jan-19 03:21 35.234207 -120.661344 308 1064ft 113kts
30-Jan-19 03:22 35.252842 -120.687160 2 1174ft 105kts
30-Jan-19 03:23 35.251864 -120.666609 119 927ft 73kts
30-Jan-19 03:24 35.240244 -120.645763 116 217ft 61kts
30-Jan-19 03:25 35.227891 -120.625709 128 502ft 97kts
30-Jan-19 03:26 35.212746 -120.602416 131 1132ft 72kts
30-Jan-19 03:27 35.200082 -120.618530 304 1291ft 97kts
30-Jan-19 03:28 35.216625 -120.649280 295 1199ft 108kts
30-Jan-19 03:29 35.233585 -120.679355 310 1182ft 108kts
30-Jan-19 03:30 35.255818 -120.700382 33 1146ft 99kts
30-Jan-19 03:31 35.257806 -120.677346 126 718ft 84kts
30-Jan-19 03:32 35.245597 -120.655486 124 345ft 73kts
30-Jan-19 03:33 35.238267 -120.642654 123 215ft 13kts
30-Jan-19 03:34 35.237768 -120.640516 90 215ft 0kts
30-Jan-19 03:35 35.237971 -120.640291 323 215ft 7kts
30-Jan-19 03:36 35.240356 -120.644486 303 215ft 12kts
30-Jan-19 03:37 35.241107 -120.645248 50 215ft 0kts
30-Jan-19 03:38 35.241108 -120.645247 50 215ft 0kts
30-Jan-19 03:39 35.241108 -120.645247 50 215ft 0kts
30-Jan-19 03:40 35.241108 -120.645247 50 215ft 0kts
30-Jan-19 03:41 35.241108 -120.645247 50 215ft 0kts
30-Jan-19 03:42 35.241108 -120.645247 50 215ft 0kts
30-Jan-19 03:43 35.241108 -120.645247 50 215ft 0kts
30-Jan-19 03:44 35.241108 -120.645247 50 215ft 0kts

Navigation Log

Ident Type
Flight plan parsing failed, navigation log unavailable